Time;durP1;ratioP1;P1;durP2;ratioP2;P2;SDS_P1;SDS_P2;PMS_P1;PMS_P2;Temp;Humidity;BMP_temperature;BMP_pressure;BME280_temperature;BME280_humidity;BME280_pressure;Samples;Min_cycle;Max_cycle;Signal;HPM_P1;HPM_P2
2020/12/30 00:02:16;;;;;;;32.43;26.63;;;4.20;99.90;;;;;;5054910;28;20824;-69
2020/12/30 00:04:42;;;;;;;30.07;26.13;;;4.20;99.90;;;;;;5069822;28;20869;-69
2020/12/30 00:07:08;;;;;;;35.67;27.33;;;4.20;99.90;;;;;;5072818;28;20443;-69
2020/12/30 00:09:36;;;;;;;32.17;26.57;;;4.20;99.90;;;;;;5073781;28;20474;-69
2020/12/30 00:12:02;;;;;;;27.83;24.13;;;4.20;99.90;;;;;;5070410;28;20496;-68
2020/12/30 00:14:28;;;;;;;31.07;27.47;;;4.30;99.90;;;;;;5067619;28;20507;-69
2020/12/30 00:16:54;;;;;;;27.07;24.37;;;4.20;99.90;;;;;;5066457;28;20460;-68
2020/12/30 00:19:21;;;;;;;33.17;29.30;;;4.30;99.90;;;;;;5064298;28;20480;-68
2020/12/30 00:21:47;;;;;;;32.47;26.33;;;4.20;99.90;;;;;;5062185;28;20451;-69
2020/12/30 00:24:13;;;;;;;34.63;28.03;;;4.20;99.90;;;;;;5054819;28;20447;-69
2020/12/30 00:26:40;;;;;;;32.80;27.10;;;4.20;99.90;;;;;;5065990;28;20516;-69
2020/12/30 00:29:07;;;;;;;34.70;28.53;;;4.30;99.90;;;;;;5073066;28;20483;-69
2020/12/30 00:31:33;;;;;;;32.53;26.97;;;4.20;99.90;;;;;;5069960;28;20469;-68
2020/12/30 00:33:59;;;;;;;34.13;28.57;;;4.20;99.90;;;;;;5056937;28;20571;-68
2020/12/30 00:36:27;;;;;;;33.30;26.70;;;4.30;99.90;;;;;;5054010;28;20462;-69
2020/12/30 00:38:54;;;;;;;41.57;33.23;;;4.40;99.90;;;;;;5054349;28;20472;-69
2020/12/30 00:41:20;;;;;;;38.50;30.80;;;4.30;99.90;;;;;;5062375;28;20446;-69
2020/12/30 00:43:47;;;;;;;35.30;31.33;;;4.30;99.90;;;;;;5068793;28;20443;-68
2020/12/30 00:46:15;;;;;;;40.33;32.10;;;4.30;99.90;;;;;;5065784;28;20877;-69
2020/12/30 00:48:41;;;;;;;40.60;33.90;;;4.40;99.90;;;;;;5054504;28;20479;-68
2020/12/30 00:51:12;;;;;;;40.07;34.87;;;4.30;99.90;;;;;;5058768;28;20451;-68
2020/12/30 00:53:39;;;;;;;44.17;35.53;;;4.30;99.90;;;;;;5072309;28;20474;-68
2020/12/30 00:56:07;;;;;;;43.07;34.70;;;4.30;99.90;;;;;;5067958;28;20458;-69
2020/12/30 00:58:33;;;;;;;43.07;38.20;;;4.30;99.90;;;;;;5073210;28;20469;-68
2020/12/30 01:01:00;;;;;;;43.17;35.10;;;4.40;99.90;;;;;;5068747;28;20966;-68
2020/12/30 01:03:26;;;;;;;44.00;35.87;;;4.40;99.90;;;;;;5063229;28;20822;-69
2020/12/30 01:05:53;;;;;;;42.87;35.97;;;4.30;99.90;;;;;;5072934;28;20455;-68
2020/12/30 01:08:19;;;;;;;43.63;35.63;;;4.40;99.90;;;;;;5058824;28;20466;-68
2020/12/30 01:10:45;;;;;;;42.23;37.37;;;4.40;99.90;;;;;;5053371;28;20455;-68
2020/12/30 01:13:12;;;;;;;43.00;36.23;;;4.30;99.90;;;;;;5065147;28;20482;-68
2020/12/30 01:15:38;;;;;;;40.17;33.03;;;4.30;99.90;;;;;;5070827;28;20459;-68
2020/12/30 01:18:05;;;;;;;38.77;32.33;;;4.50;99.90;;;;;;5062116;28;20451;-68
2020/12/30 01:20:31;;;;;;;43.53;32.80;;;4.40;99.90;;;;;;5072223;28;20461;-68
2020/12/30 01:22:58;;;;;;;40.57;34.47;;;4.40;99.90;;;;;;5072174;28;20443;-68
2020/12/30 01:25:24;;;;;;;42.27;34.57;;;4.40;99.90;;;;;;5065032;28;20450;-68
2020/12/30 01:27:50;;;;;;;40.80;33.77;;;4.40;99.90;;;;;;5053144;28;20466;-68
2020/12/30 01:30:17;;;;;;;41.73;33.87;;;4.40;99.90;;;;;;5053405;28;20494;-68
2020/12/30 01:32:43;;;;;;;44.77;36.63;;;4.50;99.90;;;;;;5066719;28;20486;-68
2020/12/30 01:35:10;;;;;;;42.93;36.60;;;4.40;99.90;;;;;;5060382;28;20448;-68
2020/12/30 01:37:37;;;;;;;42.93;38.33;;;4.50;99.90;;;;;;5052436;28;20501;-67
2020/12/30 01:40:03;;;;;;;44.47;33.17;;;4.40;99.90;;;;;;5063843;28;20475;-68
2020/12/30 01:42:40;;;;;;;44.50;36.80;;;4.60;99.90;;;;;;5072617;28;20443;-68
2020/12/30 01:45:06;;;;;;;42.10;35.17;;;4.50;99.90;;;;;;5068493;28;20511;-68
2020/12/30 01:47:33;;;;;;;42.90;38.30;;;4.50;99.90;;;;;;5067809;28;20450;-68
2020/12/30 01:49:59;;;;;;;41.30;34.97;;;4.40;99.90;;;;;;5064218;28;20498;-67
2020/12/30 01:52:27;;;;;;;43.23;36.27;;;4.40;99.90;;;;;;5063205;28;20672;-68
2020/12/30 01:54:53;;;;;;;44.17;36.30;;;4.50;99.90;;;;;;5054900;28;20970;-68
2020/12/30 01:57:21;;;;;;;42.80;37.77;;;4.50;99.90;;;;;;5052191;28;20825;-68
2020/12/30 01:59:49;;;;;;;40.63;34.50;;;4.50;99.90;;;;;;5068530;28;20467;-69
2020/12/30 02:02:15;;;;;;;31.00;27.67;;;4.50;99.90;;;;;;5071554;28;20447;-69
2020/12/30 02:04:48;;;;;;;41.77;37.33;;;4.70;99.90;;;;;;5068401;28;20447;-69
2020/12/30 02:07:15;;;;;;;40.60;36.10;;;4.50;99.90;;;;;;5072043;28;20463;-69
2020/12/30 02:09:43;;;;;;;38.27;33.83;;;4.50;99.90;;;;;;5056375;28;20521;-69
2020/12/30 02:12:10;;;;;;;39.50;35.40;;;4.50;99.90;;;;;;5064301;28;20443;-70
2020/12/30 02:14:36;;;;;;;38.23;34.00;;;4.50;99.90;;;;;;5071185;28;20447;-70
2020/12/30 02:17:03;;;;;;;39.73;34.33;;;4.50;99.90;;;;;;5062059;28;20458;-70
2020/12/30 02:19:29;;;;;;;43.70;39.10;;;4.50;99.90;;;;;;5052987;28;20471;-70
2020/12/30 02:21:59;;;;;;;39.67;35.57;;;4.50;99.90;;;;;;5068372;28;20447;-69
2020/12/30 02:24:27;;;;;;;40.57;36.37;;;4.60;99.90;;;;;;5071683;28;20457;-69
2020/12/30 02:26:54;;;;;;;36.80;32.90;;;4.50;99.90;;;;;;5066629;28;20447;-69
2020/12/30 02:29:20;;;;;;;38.33;34.30;;;4.60;99.90;;;;;;5071341;28;20474;-69
2020/12/30 02:31:47;;;;;;;37.97;33.00;;;4.60;99.90;;;;;;5067441;28;20806;-69
2020/12/30 02:34:13;;;;;;;41.70;35.20;;;4.50;99.90;;;;;;5069346;28;20852;-69
2020/12/30 02:36:39;;;;;;;44.37;38.27;;;4.50;99.90;;;;;;5070931;28;20457;-69
2020/12/30 02:39:06;;;;;;;40.97;36.40;;;4.40;99.90;;;;;;5068048;28;20475;-69
2020/12/30 02:41:33;;;;;;;41.97;37.77;;;4.50;99.90;;;;;;5064172;28;20455;-69
2020/12/30 02:44:00;;;;;;;41.13;36.90;;;4.40;99.90;;;;;;5069008;28;20457;-68
2020/12/30 02:46:27;;;;;;;40.33;36.13;;;4.40;99.90;;;;;;5063103;28;20450;-70
2020/12/30 02:48:53;;;;;;;34.37;30.57;;;4.40;99.90;;;;;;5068462;28;20467;-70
2020/12/30 02:51:20;;;;;;;40.37;36.13;;;4.50;99.90;;;;;;5064083;28;20451;-69
2020/12/30 02:53:46;;;;;;;36.40;32.70;;;4.40;99.90;;;;;;5057841;28;20486;-69
2020/12/30 02:56:13;;;;;;;36.47;32.53;;;4.40;99.90;;;;;;5056893;28;20451;-69
2020/12/30 02:58:40;;;;;;;34.90;30.37;;;4.40;99.90;;;;;;5057100;28;20478;-70
2020/12/30 03:01:09;;;;;;;37.93;33.53;;;4.40;99.90;;;;;;5075228;28;20972;-69
2020/12/30 03:03:36;;;;;;;34.97;31.57;;;4.50;99.90;;;;;;5065101;28;21218;-69
2020/12/30 03:06:02;;;;;;;34.00;29.53;;;4.40;99.90;;;;;;5060392;28;20450;-69
2020/12/30 03:08:29;;;;;;;35.90;32.10;;;4.50;99.90;;;;;;5075440;28;20978;-69
2020/12/30 03:10:55;;;;;;;35.13;31.53;;;4.50;99.90;;;;;;5060218;28;20466;-69
2020/12/30 03:13:21;;;;;;;36.27;32.77;;;4.50;99.90;;;;;;5056908;28;20483;-71
2020/12/30 03:15:48;;;;;;;33.80;28.83;;;4.50;99.90;;;;;;5062764;28;20454;-71
2020/12/30 03:18:15;;;;;;;37.30;30.13;;;4.50;99.90;;;;;;5072784;28;20789;-70
2020/12/30 03:20:41;;;;;;;36.70;32.90;;;4.50;99.90;;;;;;5074204;28;20534;-70
2020/12/30 03:23:07;;;;;;;36.10;31.13;;;4.50;99.90;;;;;;5061586;28;20442;-69
2020/12/30 03:25:34;;;;;;;36.90;33.00;;;4.50;99.90;;;;;;5060415;28;20478;-70
2020/12/30 03:28:00;;;;;;;32.33;29.10;;;4.40;99.90;;;;;;5060495;28;20872;-69
2020/12/30 03:30:26;;;;;;;38.33;34.63;;;4.50;99.90;;;;;;5068408;28;20475;-69
2020/12/30 03:32:53;;;;;;;39.13;32.70;;;4.40;99.90;;;;;;5063657;28;20479;-69
2020/12/30 03:35:24;;;;;;;38.57;33.37;;;4.40;99.90;;;;;;5083103;28;20530;-69
2020/12/30 03:37:51;;;;;;;35.93;32.40;;;4.40;99.90;;;;;;5089536;28;20458;-69
2020/12/30 03:40:17;;;;;;;36.40;32.70;;;4.50;99.90;;;;;;5081755;28;20463;-68
2020/12/30 03:42:43;;;;;;;36.80;31.60;;;4.40;99.90;;;;;;5087556;28;20514;-68
2020/12/30 03:45:10;;;;;;;35.00;31.50;;;4.50;99.90;;;;;;5081599;28;20448;-69
2020/12/30 03:47:36;;;;;;;34.50;30.77;;;4.40;99.90;;;;;;5085352;28;20961;-69
2020/12/30 03:50:04;;;;;;;35.00;30.00;;;4.40;99.90;;;;;;5082369;28;20978;-70
2020/12/30 03:52:30;;;;;;;29.73;26.73;;;4.40;99.90;;;;;;5085173;28;20484;-70
2020/12/30 03:54:56;;;;;;;35.97;32.17;;;4.60;99.90;;;;;;5080012;28;21026;-69
2020/12/30 03:57:23;;;;;;;35.27;31.63;;;4.50;99.90;;;;;;5071086;28;20460;-71
2020/12/30 03:59:49;;;;;;;31.70;28.07;;;4.40;99.90;;;;;;5085091;28;20469;-71
2020/12/30 04:02:16;;;;;;;34.07;30.37;;;4.50;99.90;;;;;;5075327;28;21042;-70
2020/12/30 04:04:43;;;;;;;38.07;34.40;;;4.40;99.90;;;;;;5073282;28;20452;-69
2020/12/30 04:07:10;;;;;;;35.33;31.83;;;4.40;99.90;;;;;;5071274;28;20460;-69
2020/12/30 04:09:37;;;;;;;37.93;34.37;;;4.30;99.90;;;;;;5059075;28;20535;-70
2020/12/30 04:12:03;;;;;;;36.30;32.80;;;4.30;99.90;;;;;;5069747;28;20455;-69
2020/12/30 04:14:30;;;;;;;37.10;33.60;;;4.20;99.90;;;;;;5071266;28;20451;-69
2020/12/30 04:16:56;;;;;;;37.63;34.17;;;4.20;99.90;;;;;;5070424;28;20838;-69
2020/12/30 04:19:22;;;;;;;35.77;32.43;;;4.20;99.90;;;;;;5053996;28;20467;-69
2020/12/30 04:21:49;;;;;;;36.47;33.07;;;4.30;99.90;;;;;;5070936;28;20472;-69
2020/12/30 04:24:16;;;;;;;35.80;32.50;;;4.30;99.90;;;;;;5054461;28;20467;-69
2020/12/30 04:26:43;;;;;;;37.50;33.90;;;4.30;99.90;;;;;;5054048;28;20458;-70
2020/12/30 04:29:09;;;;;;;35.50;32.10;;;4.20;99.90;;;;;;5072913;28;20536;-71
2020/12/30 04:31:37;;;;;;;37.23;33.63;;;4.30;99.90;;;;;;5069841;28;20963;-72
2020/12/30 04:34:04;;;;;;;36.00;32.53;;;4.20;99.90;;;;;;5071601;28;20590;-71
2020/12/30 04:36:30;;;;;;;38.10;34.50;;;4.30;99.90;;;;;;5058769;28;20455;-71
2020/12/30 04:38:56;;;;;;;35.00;31.80;;;4.20;99.90;;;;;;5073591;28;20499;-71
2020/12/30 04:41:31;;;;;;;35.37;31.77;;;4.20;99.90;;;;;;5071853;28;20443;-70
2020/12/30 04:44:00;;;;;;;37.00;33.27;;;4.20;99.90;;;;;;5053384;28;20531;-70
2020/12/30 04:46:28;;;;;;;35.00;31.70;;;4.20;99.90;;;;;;5054451;28;20460;-71
2020/12/30 04:48:56;;;;;;;35.40;31.60;;;4.20;99.90;;;;;;5073165;28;20463;-71
2020/12/30 04:51:23;;;;;;;34.70;31.20;;;4.20;99.90;;;;;;5063549;28;20448;-71
2020/12/30 04:53:50;;;;;;;36.30;32.33;;;4.20;99.90;;;;;;5060342;28;20532;-71
2020/12/30 04:56:17;;;;;;;36.17;32.60;;;4.20;99.90;;;;;;5068511;28;20535;-71
2020/12/30 04:58:46;;;;;;;38.20;34.70;;;4.30;99.90;;;;;;5053963;28;20979;-71
2020/12/30 05:01:18;;;;;;;38.43;34.47;;;4.20;99.90;;;;;;5056239;28;20447;-71
2020/12/30 05:03:46;;;;;;;35.77;32.47;;;4.20;99.90;;;;;;5073073;28;20907;-71
2020/12/30 05:06:15;;;;;;;39.60;35.90;;;4.20;99.90;;;;;;5055734;28;20537;-71
2020/12/30 05:08:42;;;;;;;36.70;33.30;;;4.20;99.90;;;;;;5052915;28;20468;-71
2020/12/30 05:11:09;;;;;;;36.40;32.93;;;4.20;99.90;;;;;;5053281;28;20483;-71
2020/12/30 05:13:36;;;;;;;35.90;32.50;;;4.20;99.90;;;;;;5068757;28;20481;-72
2020/12/30 05:16:03;;;;;;;37.00;33.30;;;4.20;99.90;;;;;;5065215;28;20494;-71
2020/12/30 05:18:30;;;;;;;34.73;31.43;;;4.20;99.90;;;;;;5068815;28;20471;-71
2020/12/30 05:20:56;;;;;;;34.30;31.10;;;4.20;99.90;;;;;;5061763;28;20459;-70
2020/12/30 05:23:22;;;;;;;33.30;30.20;;;4.30;99.90;;;;;;5073185;28;20439;-71
2020/12/30 05:25:48;;;;;;;34.73;31.10;;;4.20;99.90;;;;;;5071568;28;20443;-71
2020/12/30 05:28:15;;;;;;;35.10;31.60;;;4.20;99.90;;;;;;5055025;28;20452;-71
2020/12/30 05:30:43;;;;;;;37.13;33.43;;;4.20;99.90;;;;;;5084701;22;20526;-64
2020/12/30 05:33:10;;;;;;;34.40;31.10;;;4.20;99.90;;;;;;5052759;28;20578;-64
2020/12/30 05:35:37;;;;;;;35.00;31.70;;;4.20;99.90;;;;;;5043612;28;20456;-63
2020/12/30 05:38:04;;;;;;;35.13;31.97;;;4.20;99.90;;;;;;5052381;28;20456;-63
2020/12/30 05:40:33;;;;;;;34.80;31.57;;;4.20;99.90;;;;;;5036953;28;20469;-64
2020/12/30 05:43:10;;;;;;;33.40;30.20;;;4.30;99.90;;;;;;5033719;28;20445;-64
2020/12/30 05:45:44;;;;;;;35.63;32.13;;;4.20;99.90;;;;;;5031753;28;20452;-64
2020/12/30 05:48:12;;;;;;;34.60;31.40;;;4.20;99.90;;;;;;5032828;28;20459;-64
2020/12/30 05:50:47;;;;;;;34.00;30.60;;;4.20;99.90;;;;;;5030509;28;20476;-66
2020/12/30 05:53:14;;;;;;;34.53;31.10;;;4.20;99.90;;;;;;5014640;28;21019;-64
2020/12/30 05:55:41;;;;;;;34.00;30.90;;;4.20;99.90;;;;;;5031471;28;20456;-64
2020/12/30 05:58:08;;;;;;;34.03;31.03;;;4.20;99.90;;;;;;5032099;28;20475;-64
2020/12/30 06:00:34;;;;;;;35.63;32.33;;;4.20;99.90;;;;;;5031767;28;20461;-65
2020/12/30 06:03:00;;;;;;;33.90;30.37;;;4.20;99.90;;;;;;5032142;28;20448;-65
2020/12/30 06:05:28;;;;;;;35.70;32.60;;;4.20;99.90;;;;;;5031976;28;20525;-65
2020/12/30 06:07:55;;;;;;;32.60;29.60;;;4.20;99.90;;;;;;5029959;28;20836;-65
2020/12/30 06:10:23;;;;;;;32.37;29.43;;;4.20;99.90;;;;;;5026523;28;20483;-64
2020/12/30 06:12:51;;;;;;;33.73;30.53;;;4.20;99.90;;;;;;5031465;28;20480;-65
2020/12/30 06:15:18;;;;;;;34.17;30.97;;;4.20;99.90;;;;;;5031746;28;20453;-65
2020/12/30 06:17:53;;;;;;;32.70;29.70;;;4.20;99.90;;;;;;5031445;28;20978;-64
2020/12/30 06:20:24;;;;;;;32.37;29.20;;;4.20;99.90;;;;;;5031665;28;20467;-64
2020/12/30 06:22:56;;;;;;;32.47;29.57;;;4.20;99.90;;;;;;5030955;28;20827;-64
2020/12/30 06:25:25;;;;;;;32.90;29.73;;;4.20;99.90;;;;;;5029838;28;20948;-64
2020/12/30 06:27:52;;;;;;;33.63;30.30;;;4.20;99.90;;;;;;5030849;28;20449;-64
2020/12/30 06:30:18;;;;;;;30.50;27.80;;;4.30;99.90;;;;;;5031612;28;20526;-63
2020/12/30 06:32:45;;;;;;;31.87;28.67;;;4.20;99.90;;;;;;5030882;28;20994;-64
2020/12/30 06:35:12;;;;;;;31.67;28.80;;;4.20;99.90;;;;;;5031125;28;20503;-65
2020/12/30 06:37:41;;;;;;;33.00;29.87;;;4.20;99.90;;;;;;5018382;28;20448;-65
2020/12/30 06:40:22;;;;;;;32.67;29.30;;;4.20;99.90;;;;;;5031602;28;20472;-65
2020/12/30 06:42:52;;;;;;;29.80;26.77;;;4.20;99.90;;;;;;5031649;28;20455;-65
2020/12/30 06:45:52;;;;;;;32.67;29.67;;;4.20;99.90;;;;;;5030805;28;20484;-65
2020/12/30 06:48:20;;;;;;;32.13;29.17;;;4.20;99.90;;;;;;5020116;28;20840;-64
2020/12/30 06:50:47;;;;;;;33.93;30.83;;;4.20;99.90;;;;;;5030306;28;20548;-63
2020/12/30 06:53:37;;;;;;;33.70;30.60;;;4.20;99.90;;;;;;5031342;28;20833;-64
2020/12/30 06:56:05;;;;;;;32.47;29.47;;;4.20;99.90;;;;;;5022430;28;20453;-65
2020/12/30 06:58:48;;;;;;;33.30;30.17;;;4.20;99.90;;;;;;5033055;28;20463;-64
2020/12/30 07:01:16;;;;;;;32.37;29.27;;;4.20;99.90;;;;;;5033078;28;20453;-65
2020/12/30 07:03:43;;;;;;;33.60;30.40;;;4.20;99.90;;;;;;5032501;28;20944;-64
2020/12/30 07:06:29;;;;;;;28.73;25.80;;;4.20;99.90;;;;;;5031454;28;20448;-64
2020/12/30 07:08:57;;;;;;;32.90;29.60;;;4.30;99.90;;;;;;5028581;28;20460;-63
2020/12/30 07:11:50;;;;;;;33.53;30.23;;;4.20;99.90;;;;;;5030217;28;20496;-64
2020/12/30 07:14:19;;;;;;;33.10;30.10;;;4.20;99.90;;;;;;5027855;28;20488;-64
2020/12/30 07:16:47;;;;;;;35.00;31.73;;;4.20;99.90;;;;;;5033935;28;20536;-64
2020/12/30 07:19:19;;;;;;;35.27;31.80;;;4.20;99.90;;;;;;5031228;28;20468;-64
2020/12/30 07:22:00;;;;;;;10.87;9.33;;;4.20;99.90;;;;;;5030661;28;20453;-68
2020/12/30 07:24:27;;;;;;;11.90;9.00;;;6.50;99.90;;;;;;5038550;28;21136;-65
2020/12/30 07:26:56;;;;;;;18.93;17.23;;;10.00;99.90;;;;;;5036785;28;20448;-65
2020/12/30 07:29:23;;;;;;;14.87;13.33;;;11.50;99.90;;;;;;5034219;28;20477;-67
2020/12/30 07:31:52;;;;;;;12.63;11.47;;;13.50;99.90;;;;;;5036874;28;20449;-65
2020/12/30 07:34:21;;;;;;;14.67;13.33;;;14.40;99.90;;;;;;5047768;28;20481;-67
2020/12/30 07:36:48;;;;;;;13.63;12.33;;;15.40;99.90;;;;;;5051118;28;20455;-66
2020/12/30 07:39:15;;;;;;;16.50;15.07;;;17.10;99.90;;;;;;5050813;28;20468;-66
2020/12/30 07:41:46;;;;;;;13.43;12.17;;;17.30;99.90;;;;;;5050644;28;20441;-66
2020/12/30 07:44:13;;;;;;;12.37;11.20;;;17.50;99.90;;;;;;5040627;28;20463;-65
2020/12/30 07:46:43;;;;;;;10.83;9.73;;;17.60;99.90;;;;;;5032106;28;20448;-65
2020/12/30 07:49:14;;;;;;;10.97;9.97;;;17.50;99.90;;;;;;5035860;28;20485;-66
2020/12/30 07:51:51;;;;;;;25.20;23.00;;;17.90;99.90;;;;;;5034696;28;20866;-64
2020/12/30 07:54:19;;;;;;;29.67;27.23;;;9.70;99.90;;;;;;5033405;28;20989;-63
2020/12/30 07:56:46;;;;;;;29.07;26.20;;;6.90;99.90;;;;;;5033404;28;20809;-63
2020/12/30 07:59:21;;;;;;;28.70;25.90;;;5.80;99.90;;;;;;5031343;28;20487;-66
2020/12/30 08:01:58;;;;;;;26.90;24.20;;;5.60;99.90;;;;;;5032981;28;20462;-66
2020/12/30 08:04:25;;;;;;;29.33;26.20;;;5.00;99.90;;;;;;5026791;28;20452;-63
2020/12/30 08:06:51;;;;;;;26.90;24.17;;;4.90;99.90;;;;;;5033255;28;20993;-63
2020/12/30 08:09:18;;;;;;;28.57;25.77;;;4.90;99.90;;;;;;5029796;28;21018;-63
2020/12/30 08:11:52;;;;;;;25.47;22.93;;;4.80;99.90;;;;;;5032521;28;20963;-64
2020/12/30 08:14:20;;;;;;;24.10;16.90;;;5.60;99.90;;;;;;5033767;28;20484;-64
2020/12/30 08:17:01;;;;;;;20.10;17.80;;;6.80;99.90;;;;;;5029367;28;20499;-64
2020/12/30 08:19:43;;;;;;;14.97;9.63;;;6.10;99.90;;;;;;5023445;28;20535;-64
2020/12/30 08:22:13;;;;;;;17.80;11.60;;;7.70;99.90;;;;;;5031534;28;20461;-64
2020/12/30 08:24:42;;;;;;;19.37;15.63;;;7.20;99.90;;;;;;5034089;28;20531;-65
2020/12/30 08:27:10;;;;;;;20.33;14.07;;;6.30;99.90;;;;;;5033521;28;20445;-64
2020/12/30 08:29:38;;;;;;;25.93;23.30;;;6.40;99.90;;;;;;5028597;28;20546;-64
2020/12/30 08:32:17;;;;;;;20.43;18.27;;;8.10;99.90;;;;;;5030024;28;20482;-64
2020/12/30 08:34:47;;;;;;;29.27;26.27;;;6.20;99.90;;;;;;5025659;28;20511;-64
2020/12/30 08:37:20;;;;;;;30.30;27.27;;;5.40;99.90;;;;;;5028315;28;20454;-64
2020/12/30 08:39:53;;;;;;;29.63;26.70;;;4.80;99.90;;;;;;5027969;28;20483;-65
2020/12/30 08:42:46;;;;;;;30.53;24.57;;;4.70;99.90;;;;;;5031824;28;20457;-64
2020/12/30 08:45:14;;;;;;;29.87;26.70;;;6.60;99.90;;;;;;5026966;28;20448;-64
2020/12/30 08:47:42;;;;;;;29.50;26.50;;;5.30;99.90;;;;;;5032418;28;20459;-66
2020/12/30 08:50:09;;;;;;;26.87;24.13;;;5.30;99.90;;;;;;5027982;28;20995;-67
2020/12/30 08:52:40;;;;;;;28.33;25.30;;;5.00;99.90;;;;;;5020067;28;20510;-66
2020/12/30 08:55:06;;;;;;;27.43;24.07;;;4.70;99.90;;;;;;5032608;28;20526;-66
2020/12/30 08:57:32;;;;;;;28.03;25.33;;;5.20;99.90;;;;;;5030248;28;20471;-66
2020/12/30 09:00:16;;;;;;;29.13;25.87;;;5.60;99.90;;;;;;5033246;28;20475;-66
2020/12/30 09:02:43;;;;;;;31.60;28.30;;;5.10;99.90;;;;;;5023390;28;20495;-63
2020/12/30 09:05:10;;;;;;;18.37;16.50;;;4.50;99.90;;;;;;5032282;28;20456;-64
2020/12/30 09:07:37;;;;;;;32.67;27.17;;;5.30;99.90;;;;;;5033808;28;20479;-65
2020/12/30 09:10:07;;;;;;;22.57;18.90;;;4.80;99.90;;;;;;5031613;28;20506;-63
2020/12/30 09:12:33;;;;;;;30.23;27.40;;;4.60;99.90;;;;;;5029123;28;20465;-64
2020/12/30 09:14:59;;;;;;;31.47;27.30;;;4.30;99.90;;;;;;5018472;28;20448;-63
2020/12/30 09:17:27;;;;;;;32.67;29.33;;;4.30;99.90;;;;;;5033467;28;20460;-66
2020/12/30 09:20:08;;;;;;;34.03;30.53;;;4.20;99.90;;;;;;5031145;28;20468;-64
2020/12/30 09:22:34;;;;;;;32.73;29.30;;;4.00;99.90;;;;;;5032688;28;20451;-63
2020/12/30 09:25:00;;;;;;;33.77;30.33;;;4.00;99.90;;;;;;5032413;28;20829;-63
2020/12/30 09:27:29;;;;;;;36.90;32.90;;;3.90;99.90;;;;;;5033013;28;20510;-63
2020/12/30 09:30:13;;;;;;;37.30;33.70;;;3.90;99.90;;;;;;5031728;28;20507;-63
2020/12/30 09:32:41;;;;;;;37.23;33.60;;;3.80;99.90;;;;;;5029653;28;20480;-65
2020/12/30 09:35:10;;;;;;;34.97;31.47;;;3.80;99.90;;;;;;5031495;28;20821;-64
2020/12/30 09:37:37;;;;;;;30.03;26.77;;;3.80;99.90;;;;;;5032921;28;20518;-64
2020/12/30 09:40:05;;;;;;;34.50;31.20;;;3.90;99.90;;;;;;5032959;28;20473;-64
2020/12/30 09:42:32;;;;;;;35.60;32.13;;;3.80;99.90;;;;;;5031120;28;20537;-64
2020/12/30 09:44:58;;;;;;;35.13;31.63;;;3.80;99.90;;;;;;5031812;28;20453;-64
2020/12/30 09:47:25;;;;;;;33.40;30.13;;;3.80;99.90;;;;;;5028761;28;20502;-64
2020/12/30 09:49:52;;;;;;;33.37;30.03;;;3.80;99.90;;;;;;5031304;28;20471;-64
2020/12/30 09:52:18;;;;;;;35.00;31.27;;;3.80;99.90;;;;;;5030056;28;20479;-64
2020/12/30 09:54:44;;;;;;;34.43;30.93;;;3.80;99.90;;;;;;5030929;28;21247;-64
2020/12/30 09:57:10;;;;;;;32.40;29.00;;;3.80;99.90;;;;;;5030522;28;20990;-64
2020/12/30 09:59:37;;;;;;;32.10;28.90;;;3.90;99.90;;;;;;5030255;28;20559;-64
2020/12/30 10:02:03;;;;;;;33.13;29.80;;;3.90;99.90;;;;;;5028607;28;20964;-64
2020/12/30 10:04:29;;;;;;;34.37;31.03;;;3.90;99.90;;;;;;5029633;28;20459;-64
2020/12/30 10:06:56;;;;;;;33.97;30.37;;;3.90;99.90;;;;;;5026950;28;21007;-65
2020/12/30 10:09:23;;;;;;;35.30;31.90;;;3.90;99.90;;;;;;5032155;28;20650;-64
2020/12/30 10:11:51;;;;;;;34.07;30.63;;;3.80;99.90;;;;;;5032407;28;20449;-64
2020/12/30 10:14:20;;;;;;;33.80;30.47;;;3.90;99.90;;;;;;5032069;28;20523;-65
2020/12/30 10:16:47;;;;;;;33.77;30.37;;;3.90;99.90;;;;;;5031799;28;20499;-64
2020/12/30 10:19:13;;;;;;;34.10;30.70;;;4.00;99.90;;;;;;5032195;28;20546;-64
2020/12/30 10:21:39;;;;;;;35.23;31.77;;;3.90;99.90;;;;;;5031417;28;20451;-64
2020/12/30 10:24:07;;;;;;;31.83;28.73;;;3.90;99.90;;;;;;5030416;28;20453;-64
2020/12/30 10:26:33;;;;;;;34.87;31.27;;;3.90;99.90;;;;;;5031397;28;20512;-64
2020/12/30 10:28:59;;;;;;;34.23;30.90;;;3.90;99.90;;;;;;5031183;28;20449;-64
2020/12/30 10:31:26;;;;;;;31.10;27.77;;;3.90;99.90;;;;;;5031057;28;20911;-64
2020/12/30 10:33:52;;;;;;;33.33;29.90;;;3.90;99.90;;;;;;5031706;28;20898;-64
2020/12/30 10:36:19;;;;;;;33.00;29.43;;;3.90;99.90;;;;;;5022411;28;20956;-65
2020/12/30 10:38:45;;;;;;;30.90;27.80;;;3.90;99.90;;;;;;5031485;28;20463;-65
2020/12/30 10:41:16;;;;;;;32.30;28.80;;;3.90;99.90;;;;;;5030779;28;20483;-63
2020/12/30 10:43:43;;;;;;;33.03;29.70;;;3.90;99.90;;;;;;5027099;28;20456;-63
2020/12/30 10:46:12;;;;;;;32.37;29.27;;;3.90;99.90;;;;;;5028296;28;20468;-64
2020/12/30 10:48:41;;;;;;;32.87;29.47;;;3.90;99.90;;;;;;5018679;28;20856;-64
2020/12/30 10:51:10;;;;;;;32.27;29.00;;;3.90;99.90;;;;;;5026555;28;20485;-63
2020/12/30 10:53:37;;;;;;;32.27;28.90;;;3.90;99.90;;;;;;5023626;28;20484;-63
2020/12/30 10:56:03;;;;;;;33.77;30.33;;;4.00;99.90;;;;;;5025910;28;20456;-64
2020/12/30 10:58:31;;;;;;;32.73;29.60;;;3.90;99.90;;;;;;5026928;28;20472;-64
2020/12/30 11:00:57;;;;;;;32.40;29.10;;;3.90;99.90;;;;;;5020721;28;20876;-63
2020/12/30 11:03:23;;;;;;;33.30;29.23;;;4.00;99.90;;;;;;5022802;28;20857;-63
2020/12/30 11:05:50;;;;;;;34.03;30.80;;;4.00;99.90;;;;;;5021901;28;20469;-64
2020/12/30 11:08:16;;;;;;;33.70;30.30;;;4.00;99.90;;;;;;5028509;28;20932;-64
2020/12/30 11:10:42;;;;;;;33.63;30.43;;;4.00;99.90;;;;;;5023193;28;20470;-63
2020/12/30 11:13:09;;;;;;;31.47;28.07;;;4.00;99.90;;;;;;5027874;28;20894;-63
2020/12/30 11:15:36;;;;;;;30.83;27.80;;;4.00;99.90;;;;;;5030459;28;20469;-63
2020/12/30 11:18:03;;;;;;;30.20;27.20;;;4.00;99.90;;;;;;5025270;28;20465;-63
2020/12/30 11:20:30;;;;;;;30.60;27.63;;;4.00;99.90;;;;;;5030630;28;20480;-63
2020/12/30 11:22:56;;;;;;;31.37;28.03;;;4.10;99.90;;;;;;5033608;28;20464;-63
2020/12/30 11:25:22;;;;;;;34.50;28.43;;;4.00;99.90;;;;;;5030426;28;20444;-63
2020/12/30 11:27:49;;;;;;;30.23;27.40;;;4.00;99.90;;;;;;5024707;28;20495;-63
2020/12/30 11:30:15;;;;;;;27.77;25.17;;;4.00;99.90;;;;;;5042517;22;20645;-60
2020/12/30 11:32:43;;;;;;;29.43;26.57;;;4.00;99.90;;;;;;5069799;28;20475;-59
2020/12/30 11:35:10;;;;;;;29.70;26.90;;;4.00;99.90;;;;;;5068010;28;20483;-62
2020/12/30 11:37:37;;;;;;;30.07;27.00;;;4.10;99.90;;;;;;5064024;28;20885;-61
2020/12/30 11:40:04;;;;;;;28.67;25.93;;;4.10;99.90;;;;;;5066006;28;20987;-59
2020/12/30 11:42:30;;;;;;;27.37;24.70;;;4.20;99.90;;;;;;5073984;28;20447;-59
2020/12/30 11:44:56;;;;;;;27.80;25.07;;;4.20;99.90;;;;;;5068255;28;20458;-59
2020/12/30 11:47:24;;;;;;;29.33;26.60;;;4.10;99.90;;;;;;5072957;28;20458;-61
2020/12/30 11:49:51;;;;;;;30.90;27.70;;;4.10;99.90;;;;;;5068338;28;20463;-60
2020/12/30 11:52:17;;;;;;;29.63;26.80;;;4.10;99.90;;;;;;5071891;28;20531;-59
2020/12/30 11:54:44;;;;;;;27.53;24.83;;;4.20;99.90;;;;;;5067291;28;20489;-60
2020/12/30 11:57:10;;;;;;;29.37;26.50;;;4.30;99.90;;;;;;5071044;28;20466;-59
2020/12/30 11:59:37;;;;;;;31.57;28.70;;;4.30;99.90;;;;;;5066171;28;20957;-59
2020/12/30 12:02:04;;;;;;;29.57;26.60;;;4.10;99.90;;;;;;5069946;28;20475;-59
2020/12/30 12:04:31;;;;;;;31.70;28.57;;;4.20;99.90;;;;;;5069127;28;20485;-61
2020/12/30 12:06:59;;;;;;;33.63;30.37;;;4.10;99.90;;;;;;5068853;28;20484;-60
2020/12/30 12:09:25;;;;;;;33.50;30.13;;;4.10;99.90;;;;;;5073128;28;20793;-59
2020/12/30 12:11:51;;;;;;;35.00;31.57;;;4.10;99.90;;;;;;5065960;28;20487;-59
2020/12/30 12:14:18;;;;;;;34.57;31.37;;;4.10;99.90;;;;;;5063781;28;20487;-59
2020/12/30 12:16:50;;;;;;;37.37;33.77;;;4.10;99.90;;;;;;5066735;28;20464;-61
2020/12/30 12:19:17;;;;;;;33.93;30.70;;;4.10;99.90;;;;;;5068787;28;20838;-59
2020/12/30 12:21:44;;;;;;;35.10;31.33;;;4.10;99.90;;;;;;5066811;28;20483;-60
2020/12/30 12:24:11;;;;;;;35.30;31.93;;;4.20;99.90;;;;;;5070308;28;20517;-59
2020/12/30 12:26:38;;;;;;;34.43;30.93;;;4.20;99.90;;;;;;5069921;28;20547;-59
2020/12/30 12:29:39;;;;;;;34.53;31.13;;;4.20;99.90;;;;;;5070647;28;20953;-59
2020/12/30 12:32:07;;;;;;;33.33;30.03;;;4.20;99.90;;;;;;5071369;28;20816;-59
2020/12/30 12:34:35;;;;;;;37.43;33.53;;;4.30;99.90;;;;;;5071175;28;20485;-59
2020/12/30 12:37:02;;;;;;;34.70;31.40;;;4.30;99.90;;;;;;5063215;28;20814;-59
2020/12/30 12:39:29;;;;;;;36.87;33.17;;;4.30;99.90;;;;;;5067180;28;20470;-60
2020/12/30 12:41:57;;;;;;;35.60;32.10;;;4.30;99.90;;;;;;5070504;28;20866;-60